Latest Coastal Weather Observations for Cape Otway

IDV60701

Issued at 1:12 am EST Thursday 3 September 2026 (issued every 10 minutes, with the page automatically refreshed every 10 minutes)

About coastal observations | Map of coastal stations | Coastal observations for VIC | Marine services | Other Formats
Station Details ID: 090015 Name: CAPE OTWAY LIGHTHOUSE Lat: -38.86 Lon: 143.51 Height: 80.0 m
Data from the previous 72 hours. | See also: Recent months at Cape Otway
Date/Time
EST
Wind Sea
Height
m
Swell Vis
km
Cloud Weather Temp
°C
Press
MSL
hPa
Rain since
9am
mm
Dir  Spd
kts
Gust
kts
Height
m
Period
s
Dir
03/01:00am NW 15 27 - - - - - - - 11.8 1007.3 0.0
03/12:50am NW 17 27 - - - - - - - 11.9 1007.3 0.0
03/12:48am NW 16 24 - - - - - - - 11.9 1007.3 0.0
03/12:30am NW 16 27 - - - - - - - 11.8 1007.4 0.0
03/12:11am NW 15 25 - - - - - - - 11.7 1007.5 0.0
03/12:00am NW 14 24 - - - - - - - 11.8 1007.9 0.0
 
Date/Time
EST
Wind Sea
Height
m
Swell Vis
km
Cloud Weather Temp
°C
Press
MSL
hPa
Rain since
9am
mm
Dir  Spd
kts
Gust
kts
Height
m
Period
s
Dir
02/11:52pm NW 15 24 - - - - - - - 11.8 1008.1 0.0
02/11:30pm NW 15 25 - - - - - - - 11.8 1008.2 0.0
02/11:24pm NW 15 25 - - - - - - - 11.9 1008.3 0.0
02/11:00pm NW 13 21 - - - - - - - 11.7 1008.8 0.0
02/10:30pm NW 14 22 - - - - - - - 11.7 1009.0 0.0
02/10:00pm NW 13 22 - - - - - - - 11.8 1009.2 0.0
02/09:57pm NW 13 22 - - - - - - - 11.9 1009.2 0.0
02/09:44pm NW 15 30 - - - - - - - 12.1 1009.3 0.0
02/09:30pm NW 12 22 - - - - - - - 12.0 1009.6 0.0
02/09:00pm NW 13 20 - - - - - - - 12.0 1009.8 0.0
02/08:30pm NW 11 20 - - - - - - - 11.8 1010.0 0.0
02/08:00pm NW 14 22 - - - - - - - 12.3 1010.0 0.0
02/07:30pm NW 13 21 - - - - - - - 12.3 1010.0 0.0
02/07:00pm NW 12 17 - - - - - - - 12.3 1010.0 0.0
02/06:30pm NW 10 18 - - - - - - - 12.3 1009.8 0.0
02/06:00pm NW 10 15 - - - - - - - 12.4 1009.9 0.0
02/05:30pm NW 9 14 - - - - - - - 12.5 1009.9 0.0
02/05:00pm NW 8 16 - - - - - - - 12.6 1009.9 0.0
02/04:30pm NW 10 13 - - - - - - - 13.0 1010.0 0.0
02/04:00pm NW 12 17 - - - - - - - 12.8 1010.5 0.0
02/03:30pm NW 10 19 - - - - - - - 13.3 1010.7 0.0
02/03:00pm WNW 12 21 - - - - - - - 13.1 1010.9 0.0
02/02:46pm WNW 16 23 - - - - - - - 12.9 1010.9 0.0
02/02:30pm WNW 17 26 - - - - - - - 13.1 1011.0 0.0
02/02:27pm WNW 16 26 - - - - - - - 13.2 1010.9 0.0
02/02:00pm WNW 14 19 - - - - - - - 13.6 1011.2 0.0
02/01:30pm WNW 12 19 - - - - - - - 13.4 1011.6 0.0
02/01:00pm WNW 12 21 - - - - - - - 13.4 1012.0 0.0
02/12:30pm WNW 13 20 - - - - - - - 13.2 1012.3 0.0
02/12:00pm WNW 14 22 - - - - - - - 12.7 1012.8 0.0
02/11:30am NW 13 20 - - - - - - - 13.1 1013.0 0.0
02/11:00am NW 13 19 - - - - - - - 13.0 1012.9 0.0
02/10:30am WNW 13 19 - - - - - - - 13.1 1013.0 0.0
02/10:00am NW 11 19 - - - - - - - 12.7 1013.1 0.0
02/09:30am NW 12 18 - - - - - - - 12.4 1013.4 0.0
02/09:00am NW 12 17 - - - - - - - 11.5 1013.6 7.2
02/08:30am NW 9 14 - - - - - - - 11.3 1013.5 7.2
02/08:00am NW 10 17 - - - - - - - 11.1 1013.5 7.2
02/07:30am WNW 12 17 - - - - - - - 11.8 1013.1 7.2
02/07:00am W 15 22 - - - - - - - 11.5 1012.9 7.2
02/06:30am W 15 19 - - - - - - - 11.6 1012.7 7.2
02/06:00am W 17 24 - - - - - - - 11.4 1012.4 7.2
02/05:30am W 15 21 - - - - - - - 11.3 1012.3 7.2
02/05:00am W 17 24 - - - - - - - 11.1 1012.3 7.2
02/04:30am W 18 24 - - - - - - - 11.0 1012.0 7.2
02/04:00am W 17 23 - - - - - - - 11.2 1011.9 7.2
02/03:30am W 16 25 - - - - - - - 11.3 1012.0 7.2
02/03:00am W 16 20 - - - - - - - 11.4 1012.1 7.2
02/02:30am W 14 19 - - - - - - - 11.3 1012.2 7.2
02/02:00am W 17 24 - - - - - - - 11.4 1012.3 7.2
02/01:30am W 15 20 - - - - - - - 11.6 1012.2 7.2
02/01:00am W 17 25 - - - - - - - 11.6 1012.0 7.2
02/12:30am W 15 20 - - - - - - - 12.2 1011.9 7.2
02/12:00am W 15 21 - - - - - - - 12.0 1012.0 7.2
 
Date/Time
EST
Wind Sea
Height
m
Swell Vis
km
Cloud Weather Temp
°C
Press
MSL
hPa
Rain since
9am
mm
Dir  Spd
kts
Gust
kts
Height
m
Period
s
Dir
01/11:30pm W 17 24 - - - - - - - 12.1 1011.8 7.2
01/11:00pm W 14 19 - - - - - - - 12.5 1011.6 7.2
01/10:30pm W 17 25 - - - - - - - 12.4 1011.3 7.2
01/10:12pm WNW 19 26 - - - - - - - 12.8 1011.0 7.0
01/10:00pm WNW 17 27 - - - - - - - 13.5 1010.7 7.0
01/09:58pm WNW 16 27 - - - - - - - 13.5 1010.6 7.0
01/09:57pm WNW 15 24 - - - - - - - 13.5 1010.6 7.0
01/09:37pm WNW 15 25 - - - - - - - 13.3 1010.6 6.8
01/09:30pm WNW 16 24 - - - - - - - 13.4 1010.5 6.8
01/09:27pm NW 16 24 - - - - - - - 13.4 1010.4 6.8
01/09:08pm NW 15 25 - - - - - - - 13.4 1010.2 6.8
01/09:00pm NW 14 24 - - - - - - Recent precip. 13.5 1010.2 6.6
01/08:30pm NW 14 22 - - - - - - - 13.2 1010.4 6.4
01/08:00pm NW 15 24 - - - - - - - 13.5 1010.2 5.4
01/07:57pm NW 15 24 - - - - - - - 13.4 1010.4 5.4
01/07:40pm NW 15 26 - - - - - - - 13.5 1010.1 5.2
01/07:30pm NW 13 21 - - - - - - - 13.4 1010.0 5.0
01/07:16pm NW 14 21 - - - - - - - 13.6 1010.0 4.0
01/07:00pm NNW 16 27 - - - - - - - 13.9 1009.5 3.2
01/06:30pm NNW 15 24 - - - - - - - 13.9 1009.4 3.0
01/06:23pm NNW 15 26 - - - - - - - 13.9 1009.5 3.0
01/06:00pm NNW 13 21 - - - - - - Recent precip. 13.7 1009.4 3.0
01/05:30pm NW 11 16 - - - - - - - 13.6 1010.3 2.6
01/05:23pm NW 12 21 - - - - - - - 13.7 1010.6 2.2
01/05:09pm WNW 18 28 - - - - - - - 14.1 1010.7 1.2
01/05:08pm WNW 19 28 - - - - - - - 14.2 1010.7 1.2
01/05:00pm WNW 22 31 - - - - - - - 14.5 1010.8 0.4
01/04:50pm WNW 15 26 - - - - - - - 16.1 1011.0 0.0
01/04:34pm NW 12 21 - - - - - - - 17.2 1010.7 0.0
01/04:30pm NW 13 22 - - - - - - - 17.2 1010.7 0.0
01/04:00pm NW 15 26 - - - - - - - 17.1 1010.6 0.0
01/03:30pm NW 15 23 - - - - - - - 18.0 1010.5 0.0
01/03:00pm NW 19 34 - - - - - - - 18.2 1010.5 0.0
01/02:30pm NNW 18 30 - - - - - - - 18.4 1010.1 0.0
01/02:00pm NNW 17 29 - - - - - - - 18.7 1010.0 0.0
01/01:30pm NNW 16 26 - - - - - - - 18.8 1010.4 0.0
01/01:28pm NNW 16 26 - - - - - - - 18.8 1010.4 0.0
01/01:26pm NNW 17 26 - - - - - - - 18.8 1010.3 0.0
01/01:00pm NNW 18 29 - - - - - - - 18.9 1010.9 0.0
01/12:30pm NNW 17 29 - - - - - - - 19.0 1011.7 0.0
01/12:22pm NNW 15 28 - - - - - - - 19.0 1012.1 0.0
01/12:21pm NNW 14 28 - - - - - - - 19.0 1012.1 0.0
01/12:00pm NNW 17 30 - - - - - - - 19.2 1012.3 0.0
01/11:30am NNW 17 29 - - - - - - - 19.4 1013.0 0.0
01/11:00am NNW 19 35 - - - - - - - 18.3 1013.3 0.0
01/10:30am NNW 20 36 - - - - - - - 17.9 1013.5 0.0
01/10:00am NNW 19 33 - - - - - - - 17.7 1014.6 0.0
01/09:30am NNW 15 25 - - - - - - - 17.3 1015.3 0.0
01/09:27am NNW 15 25 - - - - - - - 17.2 1015.4 0.0
01/09:25am NNW 16 25 - - - - - - - 17.2 1015.3 0.0
01/09:00am NNW 16 26 - - - - - - - 16.7 1015.8 0.0
01/08:30am NNW 17 26 - - - - - - - 16.0 1016.0 0.0
01/08:02am NNW 15 28 - - - - - - - 15.3 1016.4 0.0
01/08:00am NNW 14 22 - - - - - - - 15.3 1016.3 0.0
01/07:30am NNW 13 25 - - - - - - - 14.8 1016.6 0.0
01/07:00am NNW 11 18 - - - - - - - 13.8 1016.6 0.0
01/06:30am N 8 13 - - - - - - - 13.4 1017.1 0.0
01/06:00am N 9 14 - - - - - - - 13.5 1017.5 0.0
01/05:30am N 8 13 - - - - - - - 13.4 1018.0 0.0
01/05:00am N 10 16 - - - - - - - 13.7 1018.4 0.0
01/04:30am N 10 15 - - - - - - - 13.4 1018.6 0.0
01/04:00am N 8 11 - - - - - - - 13.0 1019.1 0.0
01/03:30am NNW 8 11 - - - - - - - 13.3 1019.6 0.0
01/03:00am NNW 11 15 - - - - - - - 14.1 1020.0 0.0
01/02:30am NNW 11 15 - - - - - - - 14.2 1020.5 0.0
01/02:00am NNW 9 13 - - - - - - - 13.8 1021.0 0.0
01/01:30am NNE 4 6 - - - - - - - 12.0 1022.0 0.0
01/01:00am N 5 7 - - - - - - - 12.4 1022.2 0.0
01/12:30am NNW 6 8 - - - - - - - 12.5 1022.7 0.0
01/12:00am N 10 13 - - - - - - - 13.4 1022.8 0.0
 
Date/Time
EST
Wind Sea
Height
m
Swell Vis
km
Cloud Weather Temp
°C
Press
MSL
hPa
Rain since
9am
mm
Dir  Spd
kts
Gust
kts
Height
m
Period
s
Dir
31/11:30pm N 11 13 - - - - - - - 13.2 1023.3 0.0
31/11:00pm N 10 14 - - - - - - - 12.6 1023.9 0.0
31/10:30pm N 10 12 - - - - - - - 11.9 1024.5 0.0
31/10:00pm NNW 4 7 - - - - - - - 10.4 1024.9 0.0
31/09:30pm N 6 8 - - - - - - - 10.9 1025.3 0.0
31/09:00pm N 7 8 - - - - - - - 10.8 1025.4 0.0
31/08:30pm N 5 7 - - - - - - - 10.8 1025.7 0.0
31/08:00pm N 7 8 - - - - - - - 10.8 1025.8 0.0
31/07:30pm N 5 7 - - - - - - - 10.1 1026.1 0.0
31/07:00pm N 4 5 - - - - - - - 9.9 1026.2 0.0
31/06:30pm NNE 3 4 - - - - - - - 9.7 1026.4 0.0
31/06:00pm NE 4 4 - - - - - - - 10.1 1026.5 0.0
31/05:30pm NE 7 8 - - - - - - - 11.7 1026.6 0.0
31/05:00pm ENE 7 9 - - - - - - - 12.3 1026.7 0.0
31/04:30pm ENE 7 10 - - - - - - - 12.1 1027.0 0.0
31/04:00pm ENE 7 11 - - - - - - - 11.8 1027.5 0.0
31/03:30pm ENE 7 10 - - - - - - - 11.9 1027.9 0.0
31/03:00pm E 7 9 - - - - - - - 12.3 1028.5 0.0
31/02:30pm ESE 7 10 - - - - - - - 12.3 1028.9 0.0
31/02:00pm ESE 6 8 - - - - - - - 12.1 1029.1 0.0
31/01:30pm ESE 5 7 - - - - - - - 12.0 1029.6 0.0
31/01:00pm SSE 4 6 - - - - - - - 12.6 1030.2 0.0
31/12:30pm SW 6 8 - - - - - - - 12.1 1030.6 0.0
31/12:00pm WSW 8 10 - - - - - - - 12.2 1030.9 0.0
31/11:30am W 7 10 - - - - - - - 12.0 1031.3 0.0
31/11:00am W 7 10 - - - - - - - 11.7 1031.6 0.0
31/10:30am WNW 8 11 - - - - - - - 11.3 1031.8 0.0
31/10:00am WNW 8 12 - - - - - - - 11.2 1031.9 0.0
31/09:30am WNW 7 11 - - - - - - - 11.0 1032.0 0.0
31/09:00am WNW 8 11 - - - - - - - 10.5 1031.9 0.0
31/08:30am NW 8 13 - - - - - - - 10.3 1032.0 0.0
31/08:00am NW 7 11 - - - - - - - 9.9 1031.9 0.0
31/07:30am NW 7 11 - - - - - - - 9.7 1031.8 0.0
31/07:00am NW 7 12 - - - - - - - 9.5 1031.8 0.0
31/06:30am NW 8 11 - - - - - - - 9.8 1031.8 0.0
31/06:00am WNW 10 14 - - - - - - - 10.0 1031.7 0.0
31/05:30am WNW 10 14 - - - - - - - 10.1 1031.6 0.0
31/05:00am WNW 9 13 - - - - - - - 10.2 1031.3 0.0
31/04:30am W 10 14 - - - - - - - 10.1 1031.2 0.0
31/04:00am WNW 10 14 - - - - - - - 10.3 1031.4 0.0
31/03:30am WNW 9 14 - - - - - - - 10.2 1031.6 0.0
31/03:00am W 9 14 - - - - - - - 10.4 1031.9 0.0
31/02:30am W 7 12 - - - - - - - 10.4 1032.2 0.0
31/02:00am W 9 13 - - - - - - - 10.5 1032.5 0.0
31/01:30am WNW 8 11 - - - - - - - 10.7 1032.6 0.0

Other formats

Comma delimited format used in spreadsheet applications
http://www.bom.gov.au/fwo/IDV60701/IDV60701.94842.axf

JavaScript Object Notation format (JSON) in row-major order
http://www.bom.gov.au/fwo/IDV60701/IDV60701.94842.json

Data quality

Most of these data are generated automatically and are frequently updated. Quality checks on data are not normally performed. It is possible for incorrect values to appear. Refer to information at About Latest Weather Observations and please check the disclaimer before using these data.